createdAt,value
2018-05-31T00:01:07.516Z,0
2018-05-31T00:02:17.179Z,0
2018-05-31T00:03:26.042Z,0
2018-05-31T00:04:35.256Z,0
2018-05-31T00:05:44.424Z,0
2018-05-31T00:06:53.288Z,0
2018-05-31T00:08:02.154Z,0
2018-05-31T00:09:11.021Z,0
2018-05-31T00:10:19.936Z,0
2018-05-31T00:11:28.797Z,0
2018-05-31T00:12:37.664Z,0
2018-05-31T00:13:46.524Z,0
2018-05-31T00:14:55.389Z,0
2018-05-31T00:16:04.404Z,0
2018-05-31T00:17:13.273Z,0
2018-05-31T00:18:22.433Z,0
2018-05-31T00:19:31.294Z,0
2018-05-31T00:20:40.157Z,0
2018-05-31T00:21:49.271Z,0
2018-05-31T00:22:58.132Z,0
2018-05-31T00:24:06.996Z,0
2018-05-31T00:25:16.568Z,0
2018-05-31T00:26:25.378Z,0
2018-05-31T00:27:34.676Z,0
2018-05-31T00:28:43.538Z,0
2018-05-31T00:29:52.696Z,0
2018-05-31T00:31:01.562Z,0
2018-05-31T00:32:10.427Z,0
2018-05-31T00:33:19.634Z,0
2018-05-31T00:34:28.501Z,0
2018-05-31T00:35:37.364Z,0
2018-05-31T00:36:46.226Z,0
2018-05-31T00:37:55.407Z,0
2018-05-31T00:39:04.367Z,0
2018-05-31T00:40:13.231Z,0
2018-05-31T00:41:22.095Z,0
2018-05-31T00:42:30.961Z,0
2018-05-31T00:43:39.824Z,0
2018-05-31T00:44:48.692Z,0
2018-05-31T00:45:57.556Z,0
2018-05-31T00:47:06.420Z,0
2018-05-31T00:48:16.542Z,0
2018-05-31T00:49:25.411Z,0
2018-05-31T00:50:34.656Z,0
2018-05-31T00:51:43.804Z,0
2018-05-31T00:52:52.667Z,0
2018-05-31T00:54:01.832Z,0
2018-05-31T00:55:10.990Z,0
2018-05-31T00:56:20.184Z,0
2018-05-31T00:57:29.048Z,0
2018-05-31T00:58:37.913Z,0
2018-05-31T00:59:46.774Z,0
2018-05-31T01:00:55.637Z,0
2018-05-31T01:02:04.884Z,0
2018-05-31T01:03:13.748Z,0
2018-05-31T01:04:22.609Z,0
2018-05-31T01:05:31.476Z,0
2018-05-31T01:06:40.338Z,0
2018-05-31T01:07:49.553Z,0
2018-05-31T01:08:58.417Z,0
2018-05-31T01:10:07.281Z,0
2018-05-31T01:11:16.145Z,0
2018-05-31T01:12:25.007Z,0
2018-05-31T01:13:34.195Z,0
2018-05-31T01:14:43.065Z,0
2018-05-31T01:15:52.215Z,0
2018-05-31T01:17:01.128Z,0
2018-05-31T01:18:09.992Z,0
2018-05-31T01:19:18.907Z,0
2018-05-31T01:20:27.771Z,0
2018-05-31T01:21:36.635Z,0
2018-05-31T01:22:45.499Z,0
2018-05-31T01:23:54.939Z,0
2018-05-31T01:25:03.857Z,0
2018-05-31T01:26:12.721Z,0
2018-05-31T01:27:21.584Z,0
2018-05-31T01:28:30.445Z,0
2018-05-31T01:29:39.607Z,0
2018-05-31T01:30:48.771Z,0
2018-05-31T01:31:58.463Z,0
2018-05-31T01:33:07.324Z,0
2018-05-31T01:34:16.190Z,0
2018-05-31T01:35:25.348Z,0
2018-05-31T01:36:34.214Z,0
2018-05-31T01:37:43.081Z,0
2018-05-31T01:38:51.944Z,0
2018-05-31T01:40:01.121Z,0
2018-05-31T01:41:09.988Z,0
2018-05-31T01:42:18.952Z,0
2018-05-31T01:43:27.816Z,0
2018-05-31T01:44:36.679Z,0
2018-05-31T01:45:46.118Z,0
2018-05-31T01:46:55.275Z,0
2018-05-31T01:48:04.489Z,0
2018-05-31T01:49:13.357Z,0
2018-05-31T01:50:22.503Z,0
2018-05-31T01:51:31.656Z,0
2018-05-31T01:52:40.519Z,0
2018-05-31T01:53:50.406Z,0
2018-05-31T01:54:59.553Z,0
2018-05-31T01:56:08.418Z,0
2018-05-31T01:57:17.280Z,0
2018-05-31T01:58:26.145Z,0
2018-05-31T01:59:35.009Z,0
2018-05-31T02:00:43.871Z,0
2018-05-31T02:01:52.734Z,0
2018-05-31T02:03:01.600Z,0
2018-05-31T02:04:10.465Z,0
2018-05-31T02:05:19.379Z,0
2018-05-31T02:06:28.239Z,0
2018-05-31T02:07:37.103Z,0
2018-05-31T02:08:46.252Z,0
2018-05-31T02:09:55.118Z,0
2018-05-31T02:11:04.033Z,0
2018-05-31T02:12:12.896Z,0
2018-05-31T02:13:22.048Z,0
2018-05-31T02:14:30.910Z,0
2018-05-31T02:15:39.771Z,0
2018-05-31T02:16:48.787Z,0
2018-05-31T02:17:57.705Z,0
2018-05-31T02:19:06.565Z,0
2018-05-31T02:20:15.429Z,0
2018-05-31T02:21:24.294Z,0
2018-05-31T02:22:34.275Z,0
2018-05-31T02:23:43.137Z,0
2018-05-31T02:24:52.001Z,0
2018-05-31T02:26:00.863Z,0
2018-05-31T02:27:09.723Z,0
2018-05-31T02:28:18.587Z,0
2018-05-31T02:29:27.452Z,0
2018-05-31T02:30:36.609Z,0
2018-05-31T02:31:45.477Z,0
2018-05-31T02:32:54.657Z,0
2018-05-31T02:34:03.566Z,0
2018-05-31T02:35:12.710Z,0
2018-05-31T02:36:21.857Z,0
2018-05-31T02:37:30.718Z,0
2018-05-31T02:38:39.583Z,0
2018-05-31T02:39:48.547Z,0
2018-05-31T02:40:57.406Z,0
2018-05-31T02:42:06.275Z,0
2018-05-31T02:43:15.136Z,0
2018-05-31T02:44:24.001Z,0
2018-05-31T02:45:32.913Z,0
2018-05-31T02:46:42.072Z,0
2018-05-31T02:47:50.933Z,0
2018-05-31T02:48:59.799Z,0
2018-05-31T02:50:08.946Z,0
2018-05-31T02:51:18.161Z,0
2018-05-31T02:52:27.025Z,0
2018-05-31T02:53:35.885Z,0
2018-05-31T02:54:44.748Z,0
2018-05-31T02:55:53.613Z,0
2018-05-31T02:57:02.777Z,0
2018-05-31T02:58:11.640Z,5
2018-05-31T02:59:20.504Z,5
2018-05-31T03:00:29.367Z,5
2018-05-31T03:01:38.228Z,5
2018-05-31T03:02:47.193Z,5
2018-05-31T03:03:56.355Z,5
2018-05-31T03:05:05.217Z,5
2018-05-31T03:06:14.381Z,5
2018-05-31T03:07:23.241Z,10
2018-05-31T03:08:32.149Z,10
2018-05-31T03:09:40.976Z,10
2018-05-31T03:10:49.842Z,10
2018-05-31T03:11:58.708Z,10
2018-05-31T03:13:07.570Z,10
2018-05-31T03:14:16.580Z,10
2018-05-31T03:15:25.446Z,15
2018-05-31T03:16:34.314Z,15
2018-05-31T03:17:43.176Z,15
2018-05-31T03:18:52.040Z,15
2018-05-31T03:20:01.056Z,15
2018-05-31T03:21:10.207Z,20
2018-05-31T03:22:19.357Z,20
2018-05-31T03:23:28.811Z,20
2018-05-31T03:24:37.675Z,20
2018-05-31T03:25:46.587Z,20
2018-05-31T03:26:55.452Z,25
2018-05-31T03:28:04.315Z,25
2018-05-31T03:29:13.177Z,25
2018-05-31T03:30:22.907Z,30
2018-05-31T03:31:32.524Z,30
2018-05-31T03:32:41.957Z,30
2018-05-31T03:33:50.819Z,30
2018-05-31T03:34:59.987Z,35
2018-05-31T03:36:08.852Z,35
2018-05-31T03:37:17.715Z,35
2018-05-31T03:38:26.866Z,40
2018-05-31T03:39:35.728Z,40
2018-05-31T03:40:44.592Z,40
2018-05-31T03:41:53.456Z,40
2018-05-31T03:43:02.320Z,45
2018-05-31T03:44:11.478Z,45
2018-05-31T03:45:20.946Z,45
2018-05-31T03:46:29.810Z,50
2018-05-31T03:47:38.672Z,50
2018-05-31T03:48:47.835Z,50
2018-05-31T03:49:56.697Z,55
2018-05-31T03:51:05.558Z,55
2018-05-31T03:52:14.422Z,55
2018-05-31T03:53:23.284Z,60
2018-05-31T03:54:32.581Z,60
2018-05-31T03:55:42.026Z,60
2018-05-31T03:56:51.177Z,60
2018-05-31T03:58:00.040Z,65
2018-05-31T03:59:08.903Z,65
2018-05-31T04:00:18.397Z,65
2018-05-31T04:01:27.298Z,70
2018-05-31T04:02:36.118Z,70
2018-05-31T04:03:44.981Z,70
2018-05-31T04:04:54.568Z,75
2018-05-31T04:06:03.782Z,75
2018-05-31T04:07:12.643Z,75
2018-05-31T04:08:21.508Z,75
2018-05-31T04:09:30.656Z,80
2018-05-31T04:10:40.097Z,80
2018-05-31T04:11:49.401Z,80
2018-05-31T04:12:58.598Z,80
2018-05-31T04:14:07.428Z,85
2018-05-31T04:15:16.295Z,85
2018-05-31T04:16:25.158Z,85
2018-05-31T04:17:34.071Z,85
2018-05-31T04:18:42.937Z,90
2018-05-31T04:19:51.808Z,90
2018-05-31T04:21:00.671Z,90
2018-05-31T04:22:09.533Z,95
2018-05-31T04:23:18.398Z,95
2018-05-31T04:24:27.259Z,95
2018-05-31T04:25:36.120Z,100
2018-05-31T04:26:44.981Z,100
2018-05-31T04:27:53.850Z,100
2018-05-31T04:29:03.060Z,100
2018-05-31T04:30:11.927Z,100
2018-05-31T04:31:20.791Z,100
2018-05-31T04:32:29.649Z,100
2018-05-31T04:33:38.516Z,100
2018-05-31T04:34:47.526Z,100
2018-05-31T04:35:56.394Z,105
2018-05-31T04:37:05.260Z,105
2018-05-31T04:38:14.137Z,105
2018-05-31T04:39:23.001Z,105
2018-05-31T04:40:32.016Z,110
2018-05-31T04:41:41.171Z,110
2018-05-31T04:42:50.034Z,110
2018-05-31T04:43:58.900Z,110
2018-05-31T04:45:07.766Z,110
2018-05-31T04:46:16.978Z,115
2018-05-31T04:47:25.842Z,115
2018-05-31T04:48:34.711Z,115
2018-05-31T04:49:43.864Z,115
2018-05-31T04:50:52.728Z,115
2018-05-31T04:52:01.592Z,120
2018-05-31T04:53:10.454Z,115
2018-05-31T04:54:19.321Z,115
2018-05-31T04:55:28.184Z,115
2018-05-31T04:56:37.099Z,115
2018-05-31T04:57:45.972Z,115
2018-05-31T04:58:54.829Z,115
2018-05-31T05:00:03.692Z,115
2018-05-31T05:01:12.560Z,115
2018-05-31T05:02:21.773Z,115
2018-05-31T05:03:30.641Z,115
2018-05-31T05:04:40.090Z,120
2018-05-31T05:05:48.998Z,125
2018-05-31T05:06:57.875Z,120
2018-05-31T05:08:07.034Z,130
2018-05-31T05:09:15.904Z,125
2018-05-31T05:10:24.768Z,130
2018-05-31T05:11:33.631Z,130
2018-05-31T05:12:42.777Z,130
2018-05-31T05:13:51.891Z,130
2018-05-31T05:15:01.056Z,130
2018-05-31T05:16:10.212Z,135
2018-05-31T05:17:19.075Z,130
2018-05-31T05:18:28.226Z,135
2018-05-31T05:19:37.191Z,135
2018-05-31T05:20:46.345Z,140
2018-05-31T05:21:55.203Z,130
2018-05-31T05:23:04.066Z,140
2018-05-31T05:24:12.930Z,140
2018-05-31T05:25:21.944Z,135
2018-05-31T05:26:30.869Z,140
2018-05-31T05:27:39.671Z,135
2018-05-31T05:28:48.538Z,135
2018-05-31T05:29:57.402Z,135
2018-05-31T05:31:06.716Z,145
2018-05-31T05:32:15.584Z,145
2018-05-31T05:33:24.746Z,150
2018-05-31T05:34:33.608Z,150
2018-05-31T05:35:42.473Z,150
2018-05-31T05:36:51.395Z,150
2018-05-31T05:38:00.257Z,150
2018-05-31T05:39:09.124Z,155
2018-05-31T05:40:17.988Z,155
2018-05-31T05:41:27.139Z,155
2018-05-31T05:42:36.458Z,155
2018-05-31T05:43:45.324Z,155
2018-05-31T05:44:54.186Z,155
2018-05-31T05:46:03.057Z,155
2018-05-31T05:47:11.916Z,155
2018-05-31T05:48:20.780Z,155
2018-05-31T05:49:29.654Z,155
2018-05-31T05:50:39.468Z,160
2018-05-31T05:51:48.332Z,160
2018-05-31T05:52:57.203Z,160
2018-05-31T05:54:06.208Z,160
2018-05-31T05:55:15.074Z,160
2018-05-31T05:56:23.960Z,160
2018-05-31T05:57:33.163Z,160
2018-05-31T05:58:42.027Z,160
2018-05-31T05:59:50.888Z,165
2018-05-31T06:00:59.753Z,165
2018-05-31T06:02:08.899Z,165
2018-05-31T06:03:17.766Z,165
2018-05-31T06:04:26.629Z,165
2018-05-31T06:05:35.595Z,165
2018-05-31T06:06:44.460Z,170
2018-05-31T06:07:53.326Z,170
2018-05-31T06:09:02.191Z,170
2018-05-31T06:10:11.665Z,170
2018-05-31T06:11:20.514Z,170
2018-05-31T06:12:29.666Z,170
2018-05-31T06:13:38.530Z,170
2018-05-31T06:14:47.393Z,175
2018-05-31T06:15:56.262Z,175
2018-05-31T06:17:05.464Z,175
2018-05-31T06:18:14.621Z,175
2018-05-31T06:19:23.482Z,175
2018-05-31T06:20:32.348Z,175
2018-05-31T06:21:41.212Z,175
2018-05-31T06:22:50.081Z,180
2018-05-31T06:23:58.945Z,180
2018-05-31T06:25:07.812Z,180
2018-05-31T06:26:17.413Z,180
2018-05-31T06:27:26.505Z,180
2018-05-31T06:28:35.465Z,185
2018-05-31T06:29:44.329Z,185
2018-05-31T06:30:53.196Z,185
2018-05-31T06:32:02.066Z,185
2018-05-31T06:33:11.214Z,185
2018-05-31T06:34:20.180Z,190
2018-05-31T06:35:29.048Z,190
2018-05-31T06:36:38.468Z,190
2018-05-31T06:37:47.333Z,190
2018-05-31T06:38:56.195Z,185
2018-05-31T06:40:05.210Z,185
2018-05-31T06:41:14.079Z,190
2018-05-31T06:42:22.953Z,190
2018-05-31T06:43:32.377Z,190
2018-05-31T06:44:41.244Z,190
2018-05-31T06:45:50.870Z,190
2018-05-31T06:46:59.958Z,190
2018-05-31T06:48:09.103Z,195
2018-05-31T06:49:18.250Z,190
2018-05-31T06:50:27.116Z,190
2018-05-31T06:51:36.361Z,190
2018-05-31T06:52:45.230Z,195
2018-05-31T06:53:54.100Z,195
2018-05-31T06:55:03.246Z,195
2018-05-31T06:56:12.110Z,195
2018-05-31T06:57:21.028Z,200
2018-05-31T06:58:29.892Z,200
2018-05-31T06:59:39.320Z,200
2018-05-31T07:00:48.218Z,200
2018-05-31T07:01:57.325Z,200
2018-05-31T07:03:06.341Z,200
2018-05-31T07:04:15.204Z,200
2018-05-31T07:05:24.072Z,205
2018-05-31T07:06:32.940Z,205
2018-05-31T07:07:41.800Z,210
2018-05-31T07:08:50.815Z,205
2018-05-31T07:09:59.683Z,205
2018-05-31T07:11:08.549Z,205
2018-05-31T07:12:17.414Z,205
2018-05-31T07:13:26.564Z,205
2018-05-31T07:14:35.763Z,210
2018-05-31T07:15:44.631Z,210
2018-05-31T07:16:53.499Z,210
2018-05-31T07:18:02.370Z,210
2018-05-31T07:19:11.519Z,210
2018-05-31T07:20:20.429Z,215
2018-05-31T07:21:29.298Z,215
2018-05-31T07:22:38.434Z,215
2018-05-31T07:23:47.300Z,215
2018-05-31T07:24:56.442Z,215
2018-05-31T07:26:05.636Z,215
2018-05-31T07:27:14.508Z,215
2018-05-31T07:28:23.651Z,215
2018-05-31T07:29:32.519Z,215
2018-05-31T07:30:41.386Z,220
2018-05-31T07:31:50.298Z,220
2018-05-31T07:32:59.441Z,220
2018-05-31T07:34:08.305Z,220
2018-05-31T07:35:17.170Z,220
2018-05-31T07:36:26.352Z,220
2018-05-31T07:37:35.466Z,220
2018-05-31T07:38:44.735Z,220
2018-05-31T07:39:53.859Z,225
2018-05-31T07:41:02.726Z,225
2018-05-31T07:42:11.594Z,225
2018-05-31T07:43:20.560Z,225
2018-05-31T07:44:29.807Z,225
2018-05-31T07:45:38.675Z,230
2018-05-31T07:46:47.541Z,230
2018-05-31T07:47:56.406Z,225
2018-05-31T07:49:05.375Z,225
2018-05-31T07:50:14.242Z,225
2018-05-31T07:51:23.163Z,225
2018-05-31T07:52:32.301Z,225
2018-05-31T07:53:41.124Z,225
2018-05-31T07:54:50.147Z,225
2018-05-31T07:55:59.011Z,230
2018-05-31T07:57:08.149Z,230
2018-05-31T07:58:17.079Z,230
2018-05-31T07:59:25.883Z,230
2018-05-31T08:00:34.748Z,230
2018-05-31T08:01:43.617Z,230
2018-05-31T08:02:52.487Z,235
2018-05-31T08:04:01.352Z,235
2018-05-31T08:05:10.220Z,235
2018-05-31T08:06:19.238Z,235
2018-05-31T08:07:28.106Z,235
2018-05-31T08:08:36.973Z,235
2018-05-31T08:09:46.122Z,235
2018-05-31T08:10:55.267Z,235
2018-05-31T08:12:04.587Z,240
2018-05-31T08:13:13.738Z,240
2018-05-31T08:14:22.888Z,240
2018-05-31T08:15:31.752Z,240
2018-05-31T08:16:40.624Z,240
2018-05-31T08:17:49.543Z,240
2018-05-31T08:18:58.409Z,245
2018-05-31T08:20:07.279Z,245
2018-05-31T08:21:16.147Z,245
2018-05-31T08:22:25.015Z,245
2018-05-31T08:23:34.235Z,245
2018-05-31T08:24:43.104Z,245
2018-05-31T08:25:52.249Z,245
2018-05-31T08:27:01.391Z,250
2018-05-31T08:28:10.258Z,255
2018-05-31T08:29:19.601Z,250
2018-05-31T08:30:28.469Z,250
2018-05-31T08:31:37.388Z,250
2018-05-31T08:32:46.202Z,255
2018-05-31T08:33:55.627Z,255
2018-05-31T08:35:04.603Z,255
2018-05-31T08:36:13.464Z,255
2018-05-31T08:37:22.330Z,255
2018-05-31T08:38:31.197Z,255
2018-05-31T08:39:40.065Z,255
2018-05-31T08:40:48.982Z,260
2018-05-31T08:41:57.850Z,260
2018-05-31T08:43:06.720Z,260
2018-05-31T08:44:15.865Z,260
2018-05-31T08:45:24.730Z,260
2018-05-31T08:46:33.647Z,260
2018-05-31T08:47:42.522Z,260
2018-05-31T08:48:51.671Z,260
2018-05-31T08:50:01.102Z,265
2018-05-31T08:51:10.077Z,265
2018-05-31T08:52:18.889Z,265
2018-05-31T08:53:27.754Z,265
2018-05-31T08:54:36.621Z,265
2018-05-31T08:55:45.789Z,265
2018-05-31T08:56:54.660Z,270
2018-05-31T08:58:03.953Z,270
2018-05-31T08:59:13.395Z,270
2018-05-31T09:00:22.541Z,270
2018-05-31T09:01:31.411Z,270
2018-05-31T09:02:40.278Z,270
2018-05-31T09:03:49.295Z,270
2018-05-31T09:04:58.449Z,275
2018-05-31T09:06:07.317Z,275
2018-05-31T09:07:16.183Z,275
2018-05-31T09:08:25.049Z,280
2018-05-31T09:09:34.067Z,280
2018-05-31T09:10:42.933Z,280
2018-05-31T09:11:52.077Z,280
2018-05-31T09:13:00.944Z,280
2018-05-31T09:14:10.099Z,280
2018-05-31T09:15:19.373Z,285
2018-05-31T09:16:28.516Z,280
2018-05-31T09:17:37.385Z,280
2018-05-31T09:18:46.530Z,290
2018-05-31T09:19:55.398Z,280
2018-05-31T09:21:04.416Z,285
2018-05-31T09:22:13.285Z,285
2018-05-31T09:23:22.156Z,285
2018-05-31T09:24:31.026Z,285
2018-05-31T09:25:39.898Z,290
2018-05-31T09:26:48.863Z,290
2018-05-31T09:27:57.733Z,290
2018-05-31T09:29:06.874Z,295
2018-05-31T09:30:15.747Z,295
2018-05-31T09:31:24.617Z,295
2018-05-31T09:32:33.925Z,300
2018-05-31T09:33:43.074Z,300
2018-05-31T09:34:52.223Z,300
2018-05-31T09:36:01.090Z,300
2018-05-31T09:37:09.955Z,305
2018-05-31T09:38:18.925Z,305
2018-05-31T09:39:27.793Z,310
2018-05-31T09:40:36.662Z,310
2018-05-31T09:41:45.819Z,315
2018-05-31T09:42:54.690Z,315
2018-05-31T09:44:03.709Z,315
2018-05-31T09:45:12.583Z,320
2018-05-31T09:46:21.456Z,320
2018-05-31T09:47:30.881Z,320
2018-05-31T09:48:39.751Z,330
2018-05-31T09:49:48.920Z,325
2018-05-31T09:50:57.791Z,330
2018-05-31T09:52:06.658Z,330
2018-05-31T09:53:15.527Z,330
2018-05-31T09:54:24.673Z,335
2018-05-31T09:55:33.643Z,335
2018-05-31T09:56:42.516Z,340
2018-05-31T09:57:51.384Z,340
2018-05-31T09:59:00.251Z,345
2018-05-31T10:00:09.118Z,340
2018-05-31T10:01:17.988Z,340
2018-05-31T10:02:27.135Z,340
2018-05-31T10:03:36.283Z,345
2018-05-31T10:04:45.149Z,350
2018-05-31T10:05:54.020Z,350
2018-05-31T10:07:02.988Z,350
2018-05-31T10:08:11.857Z,350
2018-05-31T10:09:20.724Z,355
2018-05-31T10:10:29.592Z,355
2018-05-31T10:11:38.461Z,360
2018-05-31T10:12:47.657Z,360
2018-05-31T10:13:56.804Z,365
2018-05-31T10:15:05.956Z,365
2018-05-31T10:16:14.825Z,365
2018-05-31T10:17:23.976Z,365
2018-05-31T10:18:32.945Z,370
2018-05-31T10:19:41.817Z,370
2018-05-31T10:20:50.693Z,375
2018-05-31T10:21:59.554Z,375
2018-05-31T10:23:08.425Z,375
2018-05-31T10:24:17.721Z,380
2018-05-31T10:25:26.597Z,385
2018-05-31T10:26:35.457Z,385
2018-05-31T10:27:44.326Z,385
2018-05-31T10:28:53.192Z,390
2018-05-31T10:30:02.162Z,390
2018-05-31T10:31:11.312Z,390
2018-05-31T10:32:20.180Z,390
2018-05-31T10:33:29.336Z,390
2018-05-31T10:34:38.207Z,390
2018-05-31T10:35:47.426Z,395
2018-05-31T10:36:56.295Z,395
2018-05-31T10:38:05.449Z,400
2018-05-31T10:39:14.317Z,395
2018-05-31T10:40:23.188Z,405
2018-05-31T10:41:32.346Z,410
2018-05-31T10:42:41.494Z,410
2018-05-31T10:43:50.364Z,415
2018-05-31T10:44:59.235Z,415
2018-05-31T10:46:08.103Z,420
2018-05-31T10:47:17.071Z,425
2018-05-31T10:48:25.937Z,430
2018-05-31T10:49:35.085Z,435
2018-05-31T10:50:44.237Z,440
2018-05-31T10:51:53.106Z,440
2018-05-31T10:53:02.261Z,445
2018-05-31T10:54:11.408Z,445
2018-05-31T10:55:20.278Z,445
2018-05-31T10:56:29.152Z,450
2018-05-31T10:57:38.301Z,455
2018-05-31T10:58:47.171Z,455
2018-05-31T10:59:56.045Z,460
2018-05-31T11:01:05.193Z,460
2018-05-31T11:02:14.351Z,460
2018-05-31T11:03:23.220Z,460
2018-05-31T11:04:32.088Z,465
2018-05-31T11:05:40.961Z,470
2018-05-31T11:06:50.106Z,470
2018-05-31T11:07:58.977Z,475
2018-05-31T11:09:07.848Z,475
2018-05-31T11:10:16.721Z,485
2018-05-31T11:11:25.873Z,495
2018-05-31T11:12:34.742Z,490
2018-05-31T11:13:43.616Z,490
2018-05-31T11:14:52.535Z,495
2018-05-31T11:16:01.356Z,495
2018-05-31T11:17:10.228Z,510
2018-05-31T11:18:19.251Z,525
2018-05-31T11:19:28.121Z,525
2018-05-31T11:20:37.002Z,530
2018-05-31T11:21:46.901Z,545
2018-05-31T11:22:56.062Z,550
2018-05-31T11:24:04.980Z,545
2018-05-31T11:25:13.855Z,550
2018-05-31T11:26:23.006Z,565
2018-05-31T11:27:31.879Z,580
2018-05-31T11:28:41.028Z,590
2018-05-31T11:29:50.000Z,595
2018-05-31T11:30:59.157Z,625
2018-05-31T11:32:08.602Z,660
2018-05-31T11:33:17.474Z,680
2018-05-31T11:34:26.348Z,685
2018-05-31T11:35:35.470Z,685
2018-05-31T11:36:44.340Z,685
2018-05-31T11:37:53.213Z,690
2018-05-31T11:39:02.256Z,695
2018-05-31T11:40:11.512Z,715
2018-05-31T11:41:20.738Z,730
2018-05-31T11:42:29.611Z,705
2018-05-31T11:43:38.481Z,690
2018-05-31T11:44:47.701Z,710
2018-05-31T11:45:56.575Z,710
2018-05-31T11:47:05.887Z,730
2018-05-31T11:48:15.026Z,770
2018-05-31T11:49:24.462Z,810
2018-05-31T11:50:33.334Z,835
2018-05-31T11:51:42.214Z,940
2018-05-31T11:52:51.234Z,2455
2018-05-31T11:54:00.106Z,2115
2018-05-31T11:55:08.981Z,1230
2018-05-31T11:56:17.853Z,2840
2018-05-31T11:57:26.725Z,2765
2018-05-31T11:58:35.648Z,2975
2018-05-31T11:59:44.521Z,2970
2018-05-31T12:00:53.403Z,1625
2018-05-31T12:02:02.553Z,2705
2018-05-31T12:03:11.437Z,2825
2018-05-31T12:04:20.774Z,2710
2018-05-31T12:05:29.761Z,2660
2018-05-31T12:06:38.634Z,2455
2018-05-31T12:07:48.063Z,1100
2018-05-31T12:08:57.490Z,2535
2018-05-31T12:10:06.494Z,2625
2018-05-31T12:11:15.372Z,1195
2018-05-31T12:12:24.246Z,2310
2018-05-31T12:13:33.123Z,2115
2018-05-31T12:14:42.010Z,985
2018-05-31T12:15:51.334Z,1510
2018-05-31T12:17:00.221Z,1720
2018-05-31T12:18:09.116Z,1660
2018-05-31T12:19:17.995Z,2140
2018-05-31T12:20:26.878Z,2260
2018-05-31T12:21:36.110Z,2545
2018-05-31T12:22:44.985Z,2770
2018-05-31T12:23:53.864Z,2865
2018-05-31T12:25:02.738Z,2995
2018-05-31T12:26:11.904Z,2860
2018-05-31T12:27:20.825Z,2785
2018-05-31T12:28:30.284Z,2820
2018-05-31T12:29:39.158Z,3010
2018-05-31T12:30:48.315Z,2700
2018-05-31T12:31:57.201Z,855
2018-05-31T12:33:06.456Z,2430
2018-05-31T12:34:15.335Z,2165
2018-05-31T12:35:24.495Z,745
2018-05-31T12:36:33.374Z,690
2018-05-31T12:37:42.589Z,730
2018-05-31T12:38:51.547Z,2965
2018-05-31T12:40:00.423Z,2930
2018-05-31T12:41:09.303Z,2645
2018-05-31T12:42:18.178Z,2945
2018-05-31T12:43:27.058Z,3260
2018-05-31T12:44:36.321Z,870
2018-05-31T12:45:45.203Z,3030
2018-05-31T12:46:54.082Z,3110
2018-05-31T12:48:03.238Z,3180
2018-05-31T12:49:12.116Z,1020
2018-05-31T12:50:21.246Z,835
2018-05-31T12:51:30.125Z,1985
2018-05-31T12:52:39.002Z,780
2018-05-31T12:53:48.268Z,625
2018-05-31T12:54:57.094Z,555
2018-05-31T12:56:06.022Z,530
2018-05-31T12:57:14.899Z,500
2018-05-31T12:58:23.778Z,485
2018-05-31T12:59:32.652Z,485
2018-05-31T13:00:41.530Z,485
2018-05-31T13:01:51.174Z,490
2018-05-31T13:03:00.322Z,500
2018-05-31T13:04:09.475Z,520
2018-05-31T13:05:18.352Z,550
2018-05-31T13:06:27.504Z,575
2018-05-31T13:07:36.477Z,595
2018-05-31T13:08:45.359Z,620
2018-05-31T13:09:54.230Z,840
2018-05-31T13:11:03.661Z,1600
2018-05-31T13:12:12.534Z,2975
2018-05-31T13:13:21.511Z,3375
2018-05-31T13:14:30.387Z,3295
2018-05-31T13:15:39.260Z,2380
2018-05-31T13:16:48.133Z,790
2018-05-31T13:17:57.285Z,715
2018-05-31T13:19:06.875Z,635
2018-05-31T13:20:16.029Z,570
2018-05-31T13:21:24.906Z,525
2018-05-31T13:22:34.058Z,495
2018-05-31T13:23:42.935Z,495
2018-05-31T13:24:52.572Z,580
2018-05-31T13:26:01.449Z,770
2018-05-31T13:27:10.318Z,780
2018-05-31T13:28:19.192Z,1560
2018-05-31T13:29:28.067Z,1105
2018-05-31T13:30:37.092Z,710
2018-05-31T13:31:45.965Z,1840
2018-05-31T13:32:55.114Z,3140
2018-05-31T13:34:03.990Z,3285
2018-05-31T13:35:12.863Z,1975
2018-05-31T13:36:21.839Z,935
2018-05-31T13:37:30.717Z,745
2018-05-31T13:38:39.921Z,705
2018-05-31T13:39:49.071Z,630
2018-05-31T13:40:57.946Z,655
2018-05-31T13:42:07.256Z,1890
2018-05-31T13:43:16.132Z,830
2018-05-31T13:44:25.009Z,1755
2018-05-31T13:45:33.885Z,2695
2018-05-31T13:46:42.759Z,1095
2018-05-31T13:47:52.364Z,830
2018-05-31T13:49:01.242Z,750
2018-05-31T13:50:10.119Z,740
2018-05-31T13:51:18.995Z,745
2018-05-31T13:52:27.867Z,875
2018-05-31T13:53:36.745Z,955
2018-05-31T13:54:45.620Z,810
2018-05-31T13:55:54.500Z,3265
2018-05-31T13:57:03.935Z,3170
2018-05-31T13:58:13.368Z,3250
2018-05-31T13:59:22.346Z,3415
2018-05-31T14:00:31.222Z,2805
2018-05-31T14:01:40.097Z,3485
2018-05-31T14:02:49.259Z,3325
2018-05-31T14:03:58.139Z,900
2018-05-31T14:05:07.444Z,725
2018-05-31T14:06:16.320Z,620
2018-05-31T14:07:25.198Z,575
2018-05-31T14:08:34.355Z,560
2018-05-31T14:09:43.909Z,565
2018-05-31T14:10:53.068Z,650
2018-05-31T14:12:01.943Z,2860
2018-05-31T14:13:11.098Z,2500
2018-05-31T14:14:19.975Z,960
2018-05-31T14:15:28.902Z,960
2018-05-31T14:16:37.779Z,2990
2018-05-31T14:17:46.656Z,2860
2018-05-31T14:18:55.814Z,2465
2018-05-31T14:20:04.966Z,2345
2018-05-31T14:21:13.899Z,2930
2018-05-31T14:22:23.061Z,3190
2018-05-31T14:23:31.944Z,3250
2018-05-31T14:24:41.100Z,3165
2018-05-31T14:25:50.254Z,2885
2018-05-31T14:26:59.480Z,2710
2018-05-31T14:28:08.363Z,2555
2018-05-31T14:29:17.247Z,2645
2018-05-31T14:30:26.133Z,3075
2018-05-31T14:31:35.005Z,3305
2018-05-31T14:32:43.935Z,3140
2018-05-31T14:33:52.818Z,2935
2018-05-31T14:35:01.697Z,3145
2018-05-31T14:36:10.865Z,1340
2018-05-31T14:37:19.746Z,885
2018-05-31T14:38:29.538Z,855
2018-05-31T14:39:38.421Z,880
2018-05-31T14:40:47.574Z,2765
2018-05-31T14:41:56.454Z,2770
2018-05-31T14:43:05.377Z,3005
2018-05-31T14:44:14.365Z,3095
2018-05-31T14:45:23.251Z,2945
2018-05-31T14:46:32.133Z,2880
2018-05-31T14:47:41.018Z,2915
2018-05-31T14:48:50.176Z,3005
2018-05-31T14:49:59.407Z,3025
2018-05-31T14:51:08.289Z,3020
2018-05-31T14:52:17.167Z,2775
2018-05-31T14:53:26.052Z,2455
2018-05-31T14:54:34.932Z,915
2018-05-31T14:55:44.263Z,845
2018-05-31T14:56:53.457Z,840
2018-05-31T14:58:02.316Z,810
2018-05-31T14:59:11.198Z,2705
2018-05-31T15:00:20.084Z,2675
2018-05-31T15:01:28.965Z,2505
2018-05-31T15:02:37.845Z,2575
2018-05-31T15:03:46.724Z,2515
2018-05-31T15:04:56.164Z,2290
2018-05-31T15:06:05.047Z,2690
2018-05-31T15:07:14.536Z,2730
2018-05-31T15:08:23.416Z,2795
2018-05-31T15:09:32.297Z,2760
2018-05-31T15:10:41.455Z,2665
2018-05-31T15:11:50.343Z,2575
2018-05-31T15:12:59.274Z,2535
2018-05-31T15:14:08.160Z,2565
2018-05-31T15:15:17.321Z,2500
2018-05-31T15:16:26.202Z,1640
2018-05-31T15:17:35.086Z,825
2018-05-31T15:18:44.492Z,925
2018-05-31T15:19:53.650Z,755
2018-05-31T15:21:02.532Z,665
2018-05-31T15:22:11.970Z,610
2018-05-31T15:23:21.153Z,600
2018-05-31T15:24:30.212Z,600
2018-05-31T15:25:39.095Z,600
2018-05-31T15:26:47.971Z,615
2018-05-31T15:27:56.848Z,625
2018-05-31T15:29:05.725Z,655
2018-05-31T15:30:14.649Z,685
2018-05-31T15:31:23.527Z,720
2018-05-31T15:32:32.403Z,920
2018-05-31T15:33:41.279Z,1885
2018-05-31T15:34:50.165Z,2230
2018-05-31T15:35:59.424Z,1375
2018-05-31T15:37:08.870Z,2040
2018-05-31T15:38:17.745Z,2150
2018-05-31T15:39:26.905Z,2085
2018-05-31T15:40:35.778Z,2240
2018-05-31T15:41:44.658Z,2265
2018-05-31T15:42:53.813Z,1870
2018-05-31T15:44:02.689Z,1530
2018-05-31T15:45:11.567Z,1710
2018-05-31T15:46:20.445Z,2235
2018-05-31T15:47:29.325Z,2130
2018-05-31T15:48:38.211Z,2230
2018-05-31T15:49:47.095Z,2330
2018-05-31T15:50:55.960Z,2260
2018-05-31T15:52:04.842Z,2120
2018-05-31T15:53:13.766Z,2230
2018-05-31T15:54:22.926Z,2280
2018-05-31T15:55:31.806Z,2265
2018-05-31T15:56:40.697Z,2125
2018-05-31T15:57:49.853Z,1400
2018-05-31T15:58:58.831Z,1405
2018-05-31T16:00:07.712Z,1210